sensor_id;sensor_type;location;lat;lon;timestamp;temperature;humidity
4097;DHT22;2062;50.694;7.246;2023-05-07T00:02:24;14.30;52.60
4097;DHT22;2062;50.694;7.246;2023-05-07T00:04:51;14.30;52.60
4097;DHT22;2062;50.694;7.246;2023-05-07T00:07:19;14.30;52.40
4097;DHT22;2062;50.694;7.246;2023-05-07T00:09:46;14.40;52.20
4097;DHT22;2062;50.694;7.246;2023-05-07T00:12:13;14.40;52.00
4097;DHT22;2062;50.694;7.246;2023-05-07T00:14:39;14.40;52.10
4097;DHT22;2062;50.694;7.246;2023-05-07T00:17:06;14.50;52.40
4097;DHT22;2062;50.694;7.246;2023-05-07T00:19:33;14.50;52.60
4097;DHT22;2062;50.694;7.246;2023-05-07T00:22:00;14.50;52.50
4097;DHT22;2062;50.694;7.246;2023-05-07T00:24:28;14.50;52.30
4097;DHT22;2062;50.694;7.246;2023-05-07T00:26:55;14.60;52.50
4097;DHT22;2062;50.694;7.246;2023-05-07T00:29:23;14.60;52.50
4097;DHT22;2062;50.694;7.246;2023-05-07T00:31:50;14.60;52.50
4097;DHT22;2062;50.694;7.246;2023-05-07T00:34:19;14.60;52.50
4097;DHT22;2062;50.694;7.246;2023-05-07T00:36:46;14.70;52.80
4097;DHT22;2062;50.694;7.246;2023-05-07T00:39:13;14.80;52.80
4097;DHT22;2062;50.694;7.246;2023-05-07T00:41:41;14.80;52.90
4097;DHT22;2062;50.694;7.246;2023-05-07T00:44:08;14.80;52.70
4097;DHT22;2062;50.694;7.246;2023-05-07T00:46:35;14.90;52.80
4097;DHT22;2062;50.694;7.246;2023-05-07T00:49:02;14.80;52.60
4097;DHT22;2062;50.694;7.246;2023-05-07T00:51:29;14.90;53.00
4097;DHT22;2062;50.694;7.246;2023-05-07T00:53:56;14.90;52.80
4097;DHT22;2062;50.694;7.246;2023-05-07T00:56:23;14.90;53.00
4097;DHT22;2062;50.694;7.246;2023-05-07T00:58:52;14.90;52.80
4097;DHT22;2062;50.694;7.246;2023-05-07T01:01:19;14.90;52.90
4097;DHT22;2062;50.694;7.246;2023-05-07T01:03:46;15.00;53.10
4097;DHT22;2062;50.694;7.246;2023-05-07T01:06:13;15.00;52.90
4097;DHT22;2062;50.694;7.246;2023-05-07T01:08:42;15.10;52.70
4097;DHT22;2062;50.694;7.246;2023-05-07T01:11:10;15.10;53.00
4097;DHT22;2062;50.694;7.246;2023-05-07T01:13:38;15.00;52.90
4097;DHT22;2062;50.694;7.246;2023-05-07T01:16:08;15.20;52.90
4097;DHT22;2062;50.694;7.246;2023-05-07T01:18:35;15.10;52.80
4097;DHT22;2062;50.694;7.246;2023-05-07T01:21:04;15.10;52.80
4097;DHT22;2062;50.694;7.246;2023-05-07T01:23:34;15.10;52.80
4097;DHT22;2062;50.694;7.246;2023-05-07T01:26:01;15.20;52.80
4097;DHT22;2062;50.694;7.246;2023-05-07T01:28:28;15.20;52.80
4097;DHT22;2062;50.694;7.246;2023-05-07T01:30:59;15.20;52.60
4097;DHT22;2062;50.694;7.246;2023-05-07T01:33:29;15.20;52.80
4097;DHT22;2062;50.694;7.246;2023-05-07T01:35:59;15.20;52.60
4097;DHT22;2062;50.694;7.246;2023-05-07T01:38:28;15.20;52.50
4097;DHT22;2062;50.694;7.246;2023-05-07T01:40:56;15.30;52.70
4097;DHT22;2062;50.694;7.246;2023-05-07T01:43:24;15.30;52.50
4097;DHT22;2062;50.694;7.246;2023-05-07T01:45:52;15.30;52.50
4097;DHT22;2062;50.694;7.246;2023-05-07T01:48:19;15.20;52.40
4097;DHT22;2062;50.694;7.246;2023-05-07T01:50:46;15.30;52.60
4097;DHT22;2062;50.694;7.246;2023-05-07T01:53:13;15.30;52.30
4097;DHT22;2062;50.694;7.246;2023-05-07T01:55:40;15.30;52.20
4097;DHT22;2062;50.694;7.246;2023-05-07T01:58:08;15.30;52.10
4097;DHT22;2062;50.694;7.246;2023-05-07T02:00:36;15.30;52.20
4097;DHT22;2062;50.694;7.246;2023-05-07T02:03:03;15.30;52.20
4097;DHT22;2062;50.694;7.246;2023-05-07T02:05:30;15.30;52.20
4097;DHT22;2062;50.694;7.246;2023-05-07T02:07:56;15.40;52.40
4097;DHT22;2062;50.694;7.246;2023-05-07T02:10:23;15.30;52.40
4097;DHT22;2062;50.694;7.246;2023-05-07T02:12:50;15.30;52.40
4097;DHT22;2062;50.694;7.246;2023-05-07T02:15:18;15.30;52.50
4097;DHT22;2062;50.694;7.246;2023-05-07T02:18:02;15.40;52.30
4097;DHT22;2062;50.694;7.246;2023-05-07T02:20:29;15.30;52.40
4097;DHT22;2062;50.694;7.246;2023-05-07T02:22:56;15.40;52.30
4097;DHT22;2062;50.694;7.246;2023-05-07T02:25:22;15.30;52.30
4097;DHT22;2062;50.694;7.246;2023-05-07T02:27:49;15.40;52.30
4097;DHT22;2062;50.694;7.246;2023-05-07T02:30:17;15.30;52.20
4097;DHT22;2062;50.694;7.246;2023-05-07T02:32:46;15.30;52.10
4097;DHT22;2062;50.694;7.246;2023-05-07T02:35:13;15.40;52.00
4097;DHT22;2062;50.694;7.246;2023-05-07T02:37:40;15.40;52.00
4097;DHT22;2062;50.694;7.246;2023-05-07T02:40:07;15.30;51.90
4097;DHT22;2062;50.694;7.246;2023-05-07T02:42:35;15.30;52.10
4097;DHT22;2062;50.694;7.246;2023-05-07T02:45:01;15.40;52.00
4097;DHT22;2062;50.694;7.246;2023-05-07T02:47:30;15.40;52.10
4097;DHT22;2062;50.694;7.246;2023-05-07T02:49:57;15.30;52.10
4097;DHT22;2062;50.694;7.246;2023-05-07T02:52:24;15.40;52.10
4097;DHT22;2062;50.694;7.246;2023-05-07T02:54:50;15.40;52.10
4097;DHT22;2062;50.694;7.246;2023-05-07T02:57:17;15.30;52.10
4097;DHT22;2062;50.694;7.246;2023-05-07T02:59:44;15.40;52.10
4097;DHT22;2062;50.694;7.246;2023-05-07T03:02:11;15.40;52.10
4097;DHT22;2062;50.694;7.246;2023-05-07T03:04:39;15.40;52.00
4097;DHT22;2062;50.694;7.246;2023-05-07T03:07:06;15.30;52.00
4097;DHT22;2062;50.694;7.246;2023-05-07T03:09:33;15.40;52.10
4097;DHT22;2062;50.694;7.246;2023-05-07T03:12:00;15.40;52.00
4097;DHT22;2062;50.694;7.246;2023-05-07T03:14:27;15.40;52.00
4097;DHT22;2062;50.694;7.246;2023-05-07T03:16:53;15.40;52.10
4097;DHT22;2062;50.694;7.246;2023-05-07T03:19:20;15.30;52.10
4097;DHT22;2062;50.694;7.246;2023-05-07T03:21:48;15.40;52.00
4097;DHT22;2062;50.694;7.246;2023-05-07T03:24:15;15.30;52.00
4097;DHT22;2062;50.694;7.246;2023-05-07T03:26:42;15.40;51.90
4097;DHT22;2062;50.694;7.246;2023-05-07T03:29:09;15.30;51.90
4097;DHT22;2062;50.694;7.246;2023-05-07T03:31:36;15.30;51.90
4097;DHT22;2062;50.694;7.246;2023-05-07T03:34:03;15.40;51.80
4097;DHT22;2062;50.694;7.246;2023-05-07T03:36:30;15.30;52.00
4097;DHT22;2062;50.694;7.246;2023-05-07T03:38:58;15.30;51.90
4097;DHT22;2062;50.694;7.246;2023-05-07T03:41:25;15.30;51.90
4097;DHT22;2062;50.694;7.246;2023-05-07T03:43:52;15.30;52.10
4097;DHT22;2062;50.694;7.246;2023-05-07T03:46:19;15.30;52.40
4097;DHT22;2062;50.694;7.246;2023-05-07T03:48:45;15.30;52.30
4097;DHT22;2062;50.694;7.246;2023-05-07T03:51:12;15.30;52.50
4097;DHT22;2062;50.694;7.246;2023-05-07T03:53:39;15.30;52.70
4097;DHT22;2062;50.694;7.246;2023-05-07T03:56:07;15.30;52.90
4097;DHT22;2062;50.694;7.246;2023-05-07T03:58:34;15.20;52.80
4097;DHT22;2062;50.694;7.246;2023-05-07T04:01:01;15.20;52.80
4097;DHT22;2062;50.694;7.246;2023-05-07T04:03:28;15.20;52.80
4097;DHT22;2062;50.694;7.246;2023-05-07T04:05:55;15.20;52.80
4097;DHT22;2062;50.694;7.246;2023-05-07T04:08:22;15.20;52.90
4097;DHT22;2062;50.694;7.246;2023-05-07T04:10:54;15.20;52.80
4097;DHT22;2062;50.694;7.246;2023-05-07T04:13:22;15.20;52.90
4097;DHT22;2062;50.694;7.246;2023-05-07T04:15:49;15.20;52.90
4097;DHT22;2062;50.694;7.246;2023-05-07T04:18:16;15.10;53.10
4097;DHT22;2062;50.694;7.246;2023-05-07T04:20:43;15.10;53.30
4097;DHT22;2062;50.694;7.246;2023-05-07T04:23:09;15.10;53.10
4097;DHT22;2062;50.694;7.246;2023-05-07T04:25:36;15.10;53.10
4097;DHT22;2062;50.694;7.246;2023-05-07T04:28:03;15.00;53.00
4097;DHT22;2062;50.694;7.246;2023-05-07T04:30:33;15.00;53.10
4097;DHT22;2062;50.694;7.246;2023-05-07T04:33:00;15.10;53.10
4097;DHT22;2062;50.694;7.246;2023-05-07T04:35:26;15.10;53.20
4097;DHT22;2062;50.694;7.246;2023-05-07T04:37:53;15.00;53.10
4097;DHT22;2062;50.694;7.246;2023-05-07T04:40:20;15.00;53.10
4097;DHT22;2062;50.694;7.246;2023-05-07T04:42:47;15.00;53.30
4097;DHT22;2062;50.694;7.246;2023-05-07T04:45:14;15.00;53.20
4097;DHT22;2062;50.694;7.246;2023-05-07T04:47:42;15.00;53.30
4097;DHT22;2062;50.694;7.246;2023-05-07T04:50:10;15.00;53.70
4097;DHT22;2062;50.694;7.246;2023-05-07T04:52:37;15.00;53.70
4097;DHT22;2062;50.694;7.246;2023-05-07T04:55:04;15.00;54.00
4097;DHT22;2062;50.694;7.246;2023-05-07T04:57:31;15.00;54.30
4097;DHT22;2062;50.694;7.246;2023-05-07T04:59:58;15.00;54.30
4097;DHT22;2062;50.694;7.246;2023-05-07T05:02:25;15.00;54.50
4097;DHT22;2062;50.694;7.246;2023-05-07T05:04:53;15.00;54.60
4097;DHT22;2062;50.694;7.246;2023-05-07T05:07:20;15.00;54.80
4097;DHT22;2062;50.694;7.246;2023-05-07T05:09:47;15.00;55.00
4097;DHT22;2062;50.694;7.246;2023-05-07T05:12:14;15.00;55.20
4097;DHT22;2062;50.694;7.246;2023-05-07T05:14:41;15.00;55.00
4097;DHT22;2062;50.694;7.246;2023-05-07T05:17:08;15.00;55.10
4097;DHT22;2062;50.694;7.246;2023-05-07T05:19:35;15.00;55.30
4097;DHT22;2062;50.694;7.246;2023-05-07T05:22:03;15.00;55.20
4097;DHT22;2062;50.694;7.246;2023-05-07T05:24:30;15.00;55.10
4097;DHT22;2062;50.694;7.246;2023-05-07T05:26:57;15.00;55.10
4097;DHT22;2062;50.694;7.246;2023-05-07T05:29:25;15.00;55.20
4097;DHT22;2062;50.694;7.246;2023-05-07T05:31:52;15.00;55.20
4097;DHT22;2062;50.694;7.246;2023-05-07T05:34:18;15.10;55.30
4097;DHT22;2062;50.694;7.246;2023-05-07T05:36:46;15.10;55.50
4097;DHT22;2062;50.694;7.246;2023-05-07T05:39:14;15.10;55.50
4097;DHT22;2062;50.694;7.246;2023-05-07T05:41:40;15.20;55.70
4097;DHT22;2062;50.694;7.246;2023-05-07T05:44:07;15.20;55.80
4097;DHT22;2062;50.694;7.246;2023-05-07T05:46:35;15.30;56.00
4097;DHT22;2062;50.694;7.246;2023-05-07T05:49:01;15.30;56.20
4097;DHT22;2062;50.694;7.246;2023-05-07T05:51:28;15.30;56.10
4097;DHT22;2062;50.694;7.246;2023-05-07T05:53:56;15.40;55.80
4097;DHT22;2062;50.694;7.246;2023-05-07T05:56:24;15.40;55.40
4097;DHT22;2062;50.694;7.246;2023-05-07T05:58:51;15.50;55.20
4097;DHT22;2062;50.694;7.246;2023-05-07T06:01:18;15.50;55.00
4097;DHT22;2062;50.694;7.246;2023-05-07T06:03:45;15.60;55.00
4097;DHT22;2062;50.694;7.246;2023-05-07T06:06:11;15.60;54.80
4097;DHT22;2062;50.694;7.246;2023-05-07T06:08:40;15.70;54.80
4097;DHT22;2062;50.694;7.246;2023-05-07T06:11:07;15.70;54.70
4097;DHT22;2062;50.694;7.246;2023-05-07T06:13:35;15.80;54.50
4097;DHT22;2062;50.694;7.246;2023-05-07T06:16:02;15.90;54.60
4097;DHT22;2062;50.694;7.246;2023-05-07T06:18:28;16.00;54.60
4097;DHT22;2062;50.694;7.246;2023-05-07T06:20:55;16.10;54.50
4097;DHT22;2062;50.694;7.246;2023-05-07T06:23:22;16.20;54.30
4097;DHT22;2062;50.694;7.246;2023-05-07T06:25:49;16.30;54.50
4097;DHT22;2062;50.694;7.246;2023-05-07T06:28:16;16.50;54.40
4097;DHT22;2062;50.694;7.246;2023-05-07T06:30:44;16.50;54.30
4097;DHT22;2062;50.694;7.246;2023-05-07T06:33:11;16.60;54.20
4097;DHT22;2062;50.694;7.246;2023-05-07T06:35:38;16.60;54.00
4097;DHT22;2062;50.694;7.246;2023-05-07T06:38:05;16.70;54.10
4097;DHT22;2062;50.694;7.246;2023-05-07T06:40:31;16.80;53.90
4097;DHT22;2062;50.694;7.246;2023-05-07T06:42:58;16.90;53.80
4097;DHT22;2062;50.694;7.246;2023-05-07T06:45:25;17.00;53.70
4097;DHT22;2062;50.694;7.246;2023-05-07T06:47:53;17.10;53.70
4097;DHT22;2062;50.694;7.246;2023-05-07T06:50:20;17.10;53.50
4097;DHT22;2062;50.694;7.246;2023-05-07T06:52:47;17.20;53.40
4097;DHT22;2062;50.694;7.246;2023-05-07T06:55:14;17.30;53.50
4097;DHT22;2062;50.694;7.246;2023-05-07T06:57:41;17.30;53.40
4097;DHT22;2062;50.694;7.246;2023-05-07T07:00:08;17.40;53.20
4097;DHT22;2062;50.694;7.246;2023-05-07T07:02:36;17.40;53.00
4097;DHT22;2062;50.694;7.246;2023-05-07T07:05:05;17.50;53.10
4097;DHT22;2062;50.694;7.246;2023-05-07T07:07:32;17.50;52.90
4097;DHT22;2062;50.694;7.246;2023-05-07T07:09:59;17.60;52.70
4097;DHT22;2062;50.694;7.246;2023-05-07T07:12:26;17.60;52.60
4097;DHT22;2062;50.694;7.246;2023-05-07T07:14:54;17.60;52.40
4097;DHT22;2062;50.694;7.246;2023-05-07T07:17:21;17.60;52.30
4097;DHT22;2062;50.694;7.246;2023-05-07T07:19:48;17.60;52.20
4097;DHT22;2062;50.694;7.246;2023-05-07T07:22:16;17.70;52.30
4097;DHT22;2062;50.694;7.246;2023-05-07T07:24:43;17.70;52.10
4097;DHT22;2062;50.694;7.246;2023-05-07T07:27:10;17.70;52.20
4097;DHT22;2062;50.694;7.246;2023-05-07T07:29:37;17.70;52.20
4097;DHT22;2062;50.694;7.246;2023-05-07T07:32:04;17.70;52.30
4097;DHT22;2062;50.694;7.246;2023-05-07T07:34:31;17.80;52.30
4097;DHT22;2062;50.694;7.246;2023-05-07T07:36:58;17.80;52.20
4097;DHT22;2062;50.694;7.246;2023-05-07T07:39:32;17.80;52.30
4097;DHT22;2062;50.694;7.246;2023-05-07T07:41:59;17.80;52.30
4097;DHT22;2062;50.694;7.246;2023-05-07T07:44:27;17.90;52.40
4097;DHT22;2062;50.694;7.246;2023-05-07T07:46:53;18.00;52.40
4097;DHT22;2062;50.694;7.246;2023-05-07T07:49:21;17.90;52.50
4097;DHT22;2062;50.694;7.246;2023-05-07T07:51:48;18.00;52.40
4097;DHT22;2062;50.694;7.246;2023-05-07T07:54:15;18.00;52.40
4097;DHT22;2062;50.694;7.246;2023-05-07T07:56:43;18.10;52.60
4097;DHT22;2062;50.694;7.246;2023-05-07T07:59:10;18.10;52.70
4097;DHT22;2062;50.694;7.246;2023-05-07T08:01:36;18.20;52.80
4097;DHT22;2062;50.694;7.246;2023-05-07T08:04:03;18.30;52.90
4097;DHT22;2062;50.694;7.246;2023-05-07T08:06:31;18.40;52.70
4097;DHT22;2062;50.694;7.246;2023-05-07T08:08:57;18.50;52.80
4097;DHT22;2062;50.694;7.246;2023-05-07T08:11:24;18.50;52.80
4097;DHT22;2062;50.694;7.246;2023-05-07T08:13:53;18.60;52.80
4097;DHT22;2062;50.694;7.246;2023-05-07T08:16:20;18.70;52.90
4097;DHT22;2062;50.694;7.246;2023-05-07T08:18:47;18.90;53.00
4097;DHT22;2062;50.694;7.246;2023-05-07T08:21:14;19.00;53.00
4097;DHT22;2062;50.694;7.246;2023-05-07T08:23:40;19.20;53.00
4097;DHT22;2062;50.694;7.246;2023-05-07T08:26:08;19.30;53.00
4097;DHT22;2062;50.694;7.246;2023-05-07T08:28:35;19.40;53.10
4097;DHT22;2062;50.694;7.246;2023-05-07T08:31:03;19.50;53.10
4097;DHT22;2062;50.694;7.246;2023-05-07T08:33:30;19.70;52.90
4097;DHT22;2062;50.694;7.246;2023-05-07T08:35:57;19.80;53.40
4097;DHT22;2062;50.694;7.246;2023-05-07T08:38:24;20.00;52.70
4097;DHT22;2062;50.694;7.246;2023-05-07T08:40:51;20.10;52.90
4097;DHT22;2062;50.694;7.246;2023-05-07T08:43:18;20.30;52.80
4097;DHT22;2062;50.694;7.246;2023-05-07T08:45:46;20.50;52.50
4097;DHT22;2062;50.694;7.246;2023-05-07T08:48:17;20.70;52.40
4097;DHT22;2062;50.694;7.246;2023-05-07T08:50:44;20.80;52.10
4097;DHT22;2062;50.694;7.246;2023-05-07T08:53:12;20.90;51.80
4097;DHT22;2062;50.694;7.246;2023-05-07T08:55:39;21.00;51.70
4097;DHT22;2062;50.694;7.246;2023-05-07T08:58:06;21.20;51.10
4097;DHT22;2062;50.694;7.246;2023-05-07T09:00:32;21.20;50.90
4097;DHT22;2062;50.694;7.246;2023-05-07T09:03:00;21.30;50.80
4097;DHT22;2062;50.694;7.246;2023-05-07T09:05:28;21.40;50.50
4097;DHT22;2062;50.694;7.246;2023-05-07T09:07:58;21.50;50.30
4097;DHT22;2062;50.694;7.246;2023-05-07T09:10:26;21.60;50.50
4097;DHT22;2062;50.694;7.246;2023-05-07T09:12:53;21.70;50.40
4097;DHT22;2062;50.694;7.246;2023-05-07T09:15:20;21.80;49.60
4097;DHT22;2062;50.694;7.246;2023-05-07T09:17:47;21.90;49.80
4097;DHT22;2062;50.694;7.246;2023-05-07T09:20:14;22.10;49.80
4097;DHT22;2062;50.694;7.246;2023-05-07T09:22:42;22.10;49.70
4097;DHT22;2062;50.694;7.246;2023-05-07T09:25:09;22.30;49.70
4097;DHT22;2062;50.694;7.246;2023-05-07T09:27:37;22.40;49.60
4097;DHT22;2062;50.694;7.246;2023-05-07T09:30:04;22.60;49.40
4097;DHT22;2062;50.694;7.246;2023-05-07T09:32:34;22.70;49.50
4097;DHT22;2062;50.694;7.246;2023-05-07T09:35:02;22.80;49.30
4097;DHT22;2062;50.694;7.246;2023-05-07T09:37:30;23.00;49.20
4097;DHT22;2062;50.694;7.246;2023-05-07T09:39:59;23.20;49.10
4097;DHT22;2062;50.694;7.246;2023-05-07T09:42:26;23.40;48.80
4097;DHT22;2062;50.694;7.246;2023-05-07T09:44:53;23.50;48.60
4097;DHT22;2062;50.694;7.246;2023-05-07T09:47:23;23.60;48.80
4097;DHT22;2062;50.694;7.246;2023-05-07T09:49:55;23.70;47.80
4097;DHT22;2062;50.694;7.246;2023-05-07T09:52:23;23.80;47.70
4097;DHT22;2062;50.694;7.246;2023-05-07T09:54:50;24.00;47.20
4097;DHT22;2062;50.694;7.246;2023-05-07T09:57:20;24.10;47.00
4097;DHT22;2062;50.694;7.246;2023-05-07T09:59:47;24.20;46.70
4097;DHT22;2062;50.694;7.246;2023-05-07T10:02:17;24.20;46.40
4097;DHT22;2062;50.694;7.246;2023-05-07T10:04:45;24.40;46.60
4097;DHT22;2062;50.694;7.246;2023-05-07T10:07:13;24.50;46.50
4097;DHT22;2062;50.694;7.246;2023-05-07T10:09:41;24.60;46.30
4097;DHT22;2062;50.694;7.246;2023-05-07T10:12:09;24.80;46.10
4097;DHT22;2062;50.694;7.246;2023-05-07T10:14:38;25.00;45.30
4097;DHT22;2062;50.694;7.246;2023-05-07T10:17:06;25.10;45.30
4097;DHT22;2062;50.694;7.246;2023-05-07T10:19:34;25.30;44.40
4097;DHT22;2062;50.694;7.246;2023-05-07T10:22:05;25.50;44.80
4097;DHT22;2062;50.694;7.246;2023-05-07T10:24:33;25.70;44.30
4097;DHT22;2062;50.694;7.246;2023-05-07T10:27:02;25.90;44.30
4097;DHT22;2062;50.694;7.246;2023-05-07T10:29:35;26.00;43.80
4097;DHT22;2062;50.694;7.246;2023-05-07T10:32:19;26.20;43.40
4097;DHT22;2062;50.694;7.246;2023-05-07T10:34:55;26.30;43.70
4097;DHT22;2062;50.694;7.246;2023-05-07T10:37:23;26.40;43.20
4097;DHT22;2062;50.694;7.246;2023-05-07T10:39:51;26.50;42.80
4097;DHT22;2062;50.694;7.246;2023-05-07T10:42:18;26.60;42.20
4097;DHT22;2062;50.694;7.246;2023-05-07T10:44:45;26.80;42.20
4097;DHT22;2062;50.694;7.246;2023-05-07T10:47:15;26.90;42.70
4097;DHT22;2062;50.694;7.246;2023-05-07T10:50:20;27.00;42.80
4097;DHT22;2062;50.694;7.246;2023-05-07T10:53:22;27.20;43.00
4097;DHT22;2062;50.694;7.246;2023-05-07T10:56:25;27.40;41.60
4097;DHT22;2062;50.694;7.246;2023-05-07T10:58:53;27.50;40.30
4097;DHT22;2062;50.694;7.246;2023-05-07T11:01:50;27.50;40.20
4097;DHT22;2062;50.694;7.246;2023-05-07T11:04:19;27.50;39.50
4097;DHT22;2062;50.694;7.246;2023-05-07T11:09:57;27.50;38.60
4097;DHT22;2062;50.694;7.246;2023-05-07T11:12:48;27.50;38.50
4097;DHT22;2062;50.694;7.246;2023-05-07T11:15:34;27.40;37.20
4097;DHT22;2062;50.694;7.246;2023-05-07T11:18:02;27.40;36.90
4097;DHT22;2062;50.694;7.246;2023-05-07T11:20:51;27.20;37.80
4097;DHT22;2062;50.694;7.246;2023-05-07T11:23:55;27.20;36.10
4097;DHT22;2062;50.694;7.246;2023-05-07T11:26:22;27.10;36.30
4097;DHT22;2062;50.694;7.246;2023-05-07T11:28:49;27.00;37.10
4097;DHT22;2062;50.694;7.246;2023-05-07T11:31:20;26.90;36.70
4097;DHT22;2062;50.694;7.246;2023-05-07T11:33:47;26.80;36.40
4097;DHT22;2062;50.694;7.246;2023-05-07T11:36:16;26.80;36.80
4097;DHT22;2062;50.694;7.246;2023-05-07T11:38:44;26.60;36.90
4097;DHT22;2062;50.694;7.246;2023-05-07T11:41:11;26.60;36.60
4097;DHT22;2062;50.694;7.246;2023-05-07T11:43:40;26.50;36.40
4097;DHT22;2062;50.694;7.246;2023-05-07T11:46:20;26.40;36.50
4097;DHT22;2062;50.694;7.246;2023-05-07T11:48:47;26.30;36.40
4097;DHT22;2062;50.694;7.246;2023-05-07T11:51:20;26.20;36.20
4097;DHT22;2062;50.694;7.246;2023-05-07T11:53:47;26.10;36.00
4097;DHT22;2062;50.694;7.246;2023-05-07T11:56:17;26.00;36.10
4097;DHT22;2062;50.694;7.246;2023-05-07T11:58:45;25.90;35.70
4097;DHT22;2062;50.694;7.246;2023-05-07T12:01:13;25.80;36.00
4097;DHT22;2062;50.694;7.246;2023-05-07T12:03:42;25.60;36.00
4097;DHT22;2062;50.694;7.246;2023-05-07T12:06:10;25.60;36.00
4097;DHT22;2062;50.694;7.246;2023-05-07T12:08:40;25.40;36.10
4097;DHT22;2062;50.694;7.246;2023-05-07T12:11:08;25.40;36.20
4097;DHT22;2062;50.694;7.246;2023-05-07T12:13:37;25.20;36.90
4097;DHT22;2062;50.694;7.246;2023-05-07T12:16:05;25.10;37.60
4097;DHT22;2062;50.694;7.246;2023-05-07T12:18:36;25.00;38.20
4097;DHT22;2062;50.694;7.246;2023-05-07T12:21:04;24.90;38.30
4097;DHT22;2062;50.694;7.246;2023-05-07T12:23:33;24.70;38.50
4097;DHT22;2062;50.694;7.246;2023-05-07T12:26:01;24.60;38.80
4097;DHT22;2062;50.694;7.246;2023-05-07T12:28:28;24.50;39.50
4097;DHT22;2062;50.694;7.246;2023-05-07T12:30:56;24.40;39.70
4097;DHT22;2062;50.694;7.246;2023-05-07T12:33:25;24.30;39.90
4097;DHT22;2062;50.694;7.246;2023-05-07T12:35:54;24.20;40.10
4097;DHT22;2062;50.694;7.246;2023-05-07T12:38:22;24.00;40.20
4097;DHT22;2062;50.694;7.246;2023-05-07T12:40:50;23.90;40.50
4097;DHT22;2062;50.694;7.246;2023-05-07T12:43:19;23.90;40.50
4097;DHT22;2062;50.694;7.246;2023-05-07T12:45:48;23.70;40.50
4097;DHT22;2062;50.694;7.246;2023-05-07T12:48:15;23.60;40.60
4097;DHT22;2062;50.694;7.246;2023-05-07T12:50:42;23.50;40.80
4097;DHT22;2062;50.694;7.246;2023-05-07T12:53:11;23.50;41.00
4097;DHT22;2062;50.694;7.246;2023-05-07T12:55:42;23.40;41.20
4097;DHT22;2062;50.694;7.246;2023-05-07T12:58:15;23.40;41.20
4097;DHT22;2062;50.694;7.246;2023-05-07T13:00:44;23.30;41.30
4097;DHT22;2062;50.694;7.246;2023-05-07T13:03:11;23.30;41.30
4097;DHT22;2062;50.694;7.246;2023-05-07T13:05:39;23.20;41.20
4097;DHT22;2062;50.694;7.246;2023-05-07T13:08:06;23.20;41.60
4097;DHT22;2062;50.694;7.246;2023-05-07T13:10:35;23.10;41.90
4097;DHT22;2062;50.694;7.246;2023-05-07T13:13:02;23.10;42.00
4097;DHT22;2062;50.694;7.246;2023-05-07T13:15:29;23.10;42.10
4097;DHT22;2062;50.694;7.246;2023-05-07T13:17:57;23.00;42.00
4097;DHT22;2062;50.694;7.246;2023-05-07T13:20:24;23.00;42.20
4097;DHT22;2062;50.694;7.246;2023-05-07T13:22:51;23.10;42.60
4097;DHT22;2062;50.694;7.246;2023-05-07T13:25:18;23.10;43.20
4097;DHT22;2062;50.694;7.246;2023-05-07T13:27:45;23.20;43.10
4097;DHT22;2062;50.694;7.246;2023-05-07T13:30:12;23.30;43.20
4097;DHT22;2062;50.694;7.246;2023-05-07T13:32:39;23.40;43.20
4097;DHT22;2062;50.694;7.246;2023-05-07T13:35:07;23.50;43.20
4097;DHT22;2062;50.694;7.246;2023-05-07T13:37:34;23.50;43.20
4097;DHT22;2062;50.694;7.246;2023-05-07T13:40:02;23.60;43.00
4097;DHT22;2062;50.694;7.246;2023-05-07T13:42:29;23.70;43.10
4097;DHT22;2062;50.694;7.246;2023-05-07T13:44:56;23.80;42.80
4097;DHT22;2062;50.694;7.246;2023-05-07T13:47:23;23.80;42.80
4097;DHT22;2062;50.694;7.246;2023-05-07T13:49:50;24.00;42.90
4097;DHT22;2062;50.694;7.246;2023-05-07T13:52:18;24.00;42.80
4097;DHT22;2062;50.694;7.246;2023-05-07T13:54:45;24.00;42.50
4097;DHT22;2062;50.694;7.246;2023-05-07T13:57:12;24.10;42.60
4097;DHT22;2062;50.694;7.246;2023-05-07T13:59:39;24.10;42.50
4097;DHT22;2062;50.694;7.246;2023-05-07T14:02:06;24.20;42.40
4097;DHT22;2062;50.694;7.246;2023-05-07T14:04:33;24.10;42.40
4097;DHT22;2062;50.694;7.246;2023-05-07T14:07:00;24.10;42.20
4097;DHT22;2062;50.694;7.246;2023-05-07T14:09:28;24.10;41.90
4097;DHT22;2062;50.694;7.246;2023-05-07T14:11:55;24.10;42.00
4097;DHT22;2062;50.694;7.246;2023-05-07T14:14:22;24.10;41.90
4097;DHT22;2062;50.694;7.246;2023-05-07T14:16:49;24.10;41.80
4097;DHT22;2062;50.694;7.246;2023-05-07T14:19:16;24.00;41.60
4097;DHT22;2062;50.694;7.246;2023-05-07T14:21:43;24.00;41.40
4097;DHT22;2062;50.694;7.246;2023-05-07T14:24:10;23.90;41.40
4097;DHT22;2062;50.694;7.246;2023-05-07T14:26:38;23.80;41.00
4097;DHT22;2062;50.694;7.246;2023-05-07T14:29:05;23.80;41.00
4097;DHT22;2062;50.694;7.246;2023-05-07T14:31:32;23.70;41.10
4097;DHT22;2062;50.694;7.246;2023-05-07T14:33:59;23.60;41.10
4097;DHT22;2062;50.694;7.246;2023-05-07T14:36:26;23.50;41.10
4097;DHT22;2062;50.694;7.246;2023-05-07T14:38:53;23.50;41.20
4097;DHT22;2062;50.694;7.246;2023-05-07T14:41:21;23.40;41.70
4097;DHT22;2062;50.694;7.246;2023-05-07T14:43:49;23.30;42.50
4097;DHT22;2062;50.694;7.246;2023-05-07T14:46:17;23.20;43.40
4097;DHT22;2062;50.694;7.246;2023-05-07T14:48:44;23.10;43.60
4097;DHT22;2062;50.694;7.246;2023-05-07T14:51:11;22.90;42.90
4097;DHT22;2062;50.694;7.246;2023-05-07T14:53:40;22.70;42.70
4097;DHT22;2062;50.694;7.246;2023-05-07T14:56:07;22.50;43.00
4097;DHT22;2062;50.694;7.246;2023-05-07T14:58:34;22.40;43.40
4097;DHT22;2062;50.694;7.246;2023-05-07T15:01:03;22.20;43.50
4097;DHT22;2062;50.694;7.246;2023-05-07T15:03:30;22.10;44.10
4097;DHT22;2062;50.694;7.246;2023-05-07T15:05:57;21.90;44.80
4097;DHT22;2062;50.694;7.246;2023-05-07T15:08:24;21.80;44.90
4097;DHT22;2062;50.694;7.246;2023-05-07T15:10:52;21.70;45.50
4097;DHT22;2062;50.694;7.246;2023-05-07T15:13:18;21.50;45.50
4097;DHT22;2062;50.694;7.246;2023-05-07T15:15:45;21.40;45.80
4097;DHT22;2062;50.694;7.246;2023-05-07T15:18:14;21.30;46.20
4097;DHT22;2062;50.694;7.246;2023-05-07T15:20:42;21.20;46.40
4097;DHT22;2062;50.694;7.246;2023-05-07T15:23:09;21.10;46.60
4097;DHT22;2062;50.694;7.246;2023-05-07T15:25:37;21.00;47.00
4097;DHT22;2062;50.694;7.246;2023-05-07T15:28:04;20.90;47.30
4097;DHT22;2062;50.694;7.246;2023-05-07T15:30:31;20.80;47.20
4097;DHT22;2062;50.694;7.246;2023-05-07T15:32:58;20.60;47.30
4097;DHT22;2062;50.694;7.246;2023-05-07T15:35:26;20.60;47.60
4097;DHT22;2062;50.694;7.246;2023-05-07T15:37:53;20.50;47.60
4097;DHT22;2062;50.694;7.246;2023-05-07T15:40:21;20.40;48.10
4097;DHT22;2062;50.694;7.246;2023-05-07T15:42:47;20.30;48.30
4097;DHT22;2062;50.694;7.246;2023-05-07T15:45:14;20.20;48.40
4097;DHT22;2062;50.694;7.246;2023-05-07T15:47:41;20.10;48.50
4097;DHT22;2062;50.694;7.246;2023-05-07T15:50:08;20.00;48.40
4097;DHT22;2062;50.694;7.246;2023-05-07T15:52:37;19.90;48.70
4097;DHT22;2062;50.694;7.246;2023-05-07T15:55:06;19.90;48.70
4097;DHT22;2062;50.694;7.246;2023-05-07T15:57:33;19.80;48.80
4097;DHT22;2062;50.694;7.246;2023-05-07T16:00:00;19.80;48.70
4097;DHT22;2062;50.694;7.246;2023-05-07T16:02:28;19.70;48.70
4097;DHT22;2062;50.694;7.246;2023-05-07T16:04:55;19.60;49.20
4097;DHT22;2062;50.694;7.246;2023-05-07T16:07:22;19.70;49.30
4097;DHT22;2062;50.694;7.246;2023-05-07T16:09:50;19.50;49.50
4097;DHT22;2062;50.694;7.246;2023-05-07T16:12:17;19.50;50.00